sensor_id;sensor_type;location;lat;lon;timestamp;P1;durP1;ratioP1;P2;durP2;ratioP2
11121;SDS011;5615;49.304;10.576;2023-12-20T00:00:26;10.43;;;7.10;;
11121;SDS011;5615;49.304;10.576;2023-12-20T00:02:53;13.33;;;8.10;;
11121;SDS011;5615;49.304;10.576;2023-12-20T00:05:19;11.37;;;7.80;;
11121;SDS011;5615;49.304;10.576;2023-12-20T00:07:46;9.53;;;6.97;;
11121;SDS011;5615;49.304;10.576;2023-12-20T00:10:13;11.90;;;8.33;;
11121;SDS011;5615;49.304;10.576;2023-12-20T00:12:39;15.03;;;8.30;;
11121;SDS011;5615;49.304;10.576;2023-12-20T00:15:06;13.00;;;7.80;;
11121;SDS011;5615;49.304;10.576;2023-12-20T00:17:35;11.70;;;7.83;;
11121;SDS011;5615;49.304;10.576;2023-12-20T00:20:01;11.43;;;8.80;;
11121;SDS011;5615;49.304;10.576;2023-12-20T00:22:28;16.63;;;9.57;;
11121;SDS011;5615;49.304;10.576;2023-12-20T00:24:55;9.97;;;8.50;;
11121;SDS011;5615;49.304;10.576;2023-12-20T00:27:22;13.20;;;9.43;;
11121;SDS011;5615;49.304;10.576;2023-12-20T00:29:49;15.27;;;9.20;;
11121;SDS011;5615;49.304;10.576;2023-12-20T00:32:15;11.93;;;9.07;;
11121;SDS011;5615;49.304;10.576;2023-12-20T00:34:44;13.20;;;9.10;;
11121;SDS011;5615;49.304;10.576;2023-12-20T00:37:11;12.97;;;9.13;;
11121;SDS011;5615;49.304;10.576;2023-12-20T00:39:37;14.10;;;9.23;;
11121;SDS011;5615;49.304;10.576;2023-12-20T00:42:04;13.17;;;8.80;;
11121;SDS011;5615;49.304;10.576;2023-12-20T00:44:31;10.17;;;9.03;;
11121;SDS011;5615;49.304;10.576;2023-12-20T00:46:58;13.67;;;8.73;;
11121;SDS011;5615;49.304;10.576;2023-12-20T00:49:24;13.67;;;9.33;;
11121;SDS011;5615;49.304;10.576;2023-12-20T00:51:52;9.50;;;7.70;;
11121;SDS011;5615;49.304;10.576;2023-12-20T00:54:19;11.43;;;7.50;;
11121;SDS011;5615;49.304;10.576;2023-12-20T00:56:46;9.63;;;7.60;;
11121;SDS011;5615;49.304;10.576;2023-12-20T00:59:12;10.87;;;8.07;;
11121;SDS011;5615;49.304;10.576;2023-12-20T01:01:39;8.63;;;7.20;;
11121;SDS011;5615;49.304;10.576;2023-12-20T01:04:07;10.77;;;7.47;;
11121;SDS011;5615;49.304;10.576;2023-12-20T01:06:33;7.70;;;6.67;;
11121;SDS011;5615;49.304;10.576;2023-12-20T01:09:01;11.37;;;7.40;;
11121;SDS011;5615;49.304;10.576;2023-12-20T01:11:28;8.47;;;6.73;;
11121;SDS011;5615;49.304;10.576;2023-12-20T01:13:55;8.40;;;6.30;;
11121;SDS011;5615;49.304;10.576;2023-12-20T01:16:22;9.43;;;6.40;;
11121;SDS011;5615;49.304;10.576;2023-12-20T01:18:48;9.00;;;6.63;;
11121;SDS011;5615;49.304;10.576;2023-12-20T01:21:15;7.37;;;5.97;;
11121;SDS011;5615;49.304;10.576;2023-12-20T01:23:42;6.63;;;5.70;;
11121;SDS011;5615;49.304;10.576;2023-12-20T01:26:09;6.93;;;5.70;;
11121;SDS011;5615;49.304;10.576;2023-12-20T01:28:37;7.77;;;5.30;;
11121;SDS011;5615;49.304;10.576;2023-12-20T01:31:04;5.90;;;5.23;;
11121;SDS011;5615;49.304;10.576;2023-12-20T01:33:31;6.00;;;5.03;;
11121;SDS011;5615;49.304;10.576;2023-12-20T01:35:57;5.27;;;4.63;;
11121;SDS011;5615;49.304;10.576;2023-12-20T01:38:24;5.27;;;4.57;;
11121;SDS011;5615;49.304;10.576;2023-12-20T01:40:51;5.90;;;4.70;;
11121;SDS011;5615;49.304;10.576;2023-12-20T01:43:19;5.80;;;5.20;;
11121;SDS011;5615;49.304;10.576;2023-12-20T01:45:45;6.60;;;4.57;;
11121;SDS011;5615;49.304;10.576;2023-12-20T01:48:13;6.83;;;4.50;;
11121;SDS011;5615;49.304;10.576;2023-12-20T01:50:42;4.73;;;4.20;;
11121;SDS011;5615;49.304;10.576;2023-12-20T01:53:10;4.90;;;4.40;;
11121;SDS011;5615;49.304;10.576;2023-12-20T01:55:38;5.47;;;4.23;;
11121;SDS011;5615;49.304;10.576;2023-12-20T01:58:06;6.07;;;4.47;;
11121;SDS011;5615;49.304;10.576;2023-12-20T02:00:35;4.53;;;4.03;;
11121;SDS011;5615;49.304;10.576;2023-12-20T02:03:03;4.37;;;3.80;;
11121;SDS011;5615;49.304;10.576;2023-12-20T02:05:30;4.77;;;4.00;;
11121;SDS011;5615;49.304;10.576;2023-12-20T02:07:57;4.03;;;3.50;;
11121;SDS011;5615;49.304;10.576;2023-12-20T02:10:24;4.47;;;3.70;;
11121;SDS011;5615;49.304;10.576;2023-12-20T02:12:51;4.03;;;3.30;;
11121;SDS011;5615;49.304;10.576;2023-12-20T02:15:17;4.00;;;2.93;;
11121;SDS011;5615;49.304;10.576;2023-12-20T02:17:46;5.93;;;3.43;;
11121;SDS011;5615;49.304;10.576;2023-12-20T02:20:13;3.63;;;2.97;;
11121;SDS011;5615;49.304;10.576;2023-12-20T02:22:41;2.60;;;2.30;;
11121;SDS011;5615;49.304;10.576;2023-12-20T02:25:08;3.63;;;2.80;;
11121;SDS011;5615;49.304;10.576;2023-12-20T02:27:34;2.77;;;2.40;;
11121;SDS011;5615;49.304;10.576;2023-12-20T02:30:01;3.00;;;2.50;;
11121;SDS011;5615;49.304;10.576;2023-12-20T02:32:29;2.93;;;2.50;;
11121;SDS011;5615;49.304;10.576;2023-12-20T02:34:55;2.40;;;2.13;;
11121;SDS011;5615;49.304;10.576;2023-12-20T02:37:22;2.53;;;2.33;;
11121;SDS011;5615;49.304;10.576;2023-12-20T02:39:50;2.50;;;2.10;;
11121;SDS011;5615;49.304;10.576;2023-12-20T02:42:17;2.60;;;2.40;;
11121;SDS011;5615;49.304;10.576;2023-12-20T02:44:43;2.80;;;2.20;;
11121;SDS011;5615;49.304;10.576;2023-12-20T02:47:10;5.53;;;2.30;;
11121;SDS011;5615;49.304;10.576;2023-12-20T02:49:37;2.20;;;2.00;;
11121;SDS011;5615;49.304;10.576;2023-12-20T02:52:04;2.10;;;1.90;;
11121;SDS011;5615;49.304;10.576;2023-12-20T02:54:31;2.00;;;1.80;;
11121;SDS011;5615;49.304;10.576;2023-12-20T02:56:59;2.27;;;2.07;;
11121;SDS011;5615;49.304;10.576;2023-12-20T02:59:25;2.10;;;1.90;;
11121;SDS011;5615;49.304;10.576;2023-12-20T03:01:52;2.20;;;2.00;;
11121;SDS011;5615;49.304;10.576;2023-12-20T03:04:19;2.37;;;2.10;;
11121;SDS011;5615;49.304;10.576;2023-12-20T03:06:45;2.67;;;2.30;;
11121;SDS011;5615;49.304;10.576;2023-12-20T03:09:12;2.30;;;2.10;;
11121;SDS011;5615;49.304;10.576;2023-12-20T03:11:38;3.27;;;2.40;;
11121;SDS011;5615;49.304;10.576;2023-12-20T03:14:06;2.53;;;2.33;;
11121;SDS011;5615;49.304;10.576;2023-12-20T03:16:33;3.10;;;2.80;;
11121;SDS011;5615;49.304;10.576;2023-12-20T03:19:00;3.00;;;2.67;;
11121;SDS011;5615;49.304;10.576;2023-12-20T03:21:26;3.37;;;2.80;;
11121;SDS011;5615;49.304;10.576;2023-12-20T03:23:53;3.53;;;3.10;;
11121;SDS011;5615;49.304;10.576;2023-12-20T03:26:20;3.47;;;3.17;;
11121;SDS011;5615;49.304;10.576;2023-12-20T03:28:47;4.30;;;2.83;;
11121;SDS011;5615;49.304;10.576;2023-12-20T03:31:15;3.43;;;3.13;;
11121;SDS011;5615;49.304;10.576;2023-12-20T03:33:42;4.00;;;3.60;;
11121;SDS011;5615;49.304;10.576;2023-12-20T03:36:09;3.50;;;2.83;;
11121;SDS011;5615;49.304;10.576;2023-12-20T03:38:35;3.47;;;2.80;;
11121;SDS011;5615;49.304;10.576;2023-12-20T03:41:02;3.63;;;2.90;;
11121;SDS011;5615;49.304;10.576;2023-12-20T03:43:29;4.17;;;3.37;;
11121;SDS011;5615;49.304;10.576;2023-12-20T03:45:56;3.67;;;3.27;;
11121;SDS011;5615;49.304;10.576;2023-12-20T03:48:25;3.73;;;3.33;;
11121;SDS011;5615;49.304;10.576;2023-12-20T03:50:51;4.07;;;3.67;;
11121;SDS011;5615;49.304;10.576;2023-12-20T03:53:18;3.77;;;3.40;;
11121;SDS011;5615;49.304;10.576;2023-12-20T03:55:44;4.20;;;3.80;;
11121;SDS011;5615;49.304;10.576;2023-12-20T03:58:11;4.20;;;3.80;;
11121;SDS011;5615;49.304;10.576;2023-12-20T04:00:38;4.80;;;3.77;;
11121;SDS011;5615;49.304;10.576;2023-12-20T04:03:05;4.60;;;3.70;;
11121;SDS011;5615;49.304;10.576;2023-12-20T04:05:33;4.20;;;3.80;;
11121;SDS011;5615;49.304;10.576;2023-12-20T04:08:00;4.30;;;3.90;;
11121;SDS011;5615;49.304;10.576;2023-12-20T04:10:28;3.97;;;3.57;;
11121;SDS011;5615;49.304;10.576;2023-12-20T04:12:54;4.20;;;3.70;;
11121;SDS011;5615;49.304;10.576;2023-12-20T04:15:21;3.93;;;3.53;;
11121;SDS011;5615;49.304;10.576;2023-12-20T04:17:48;3.50;;;3.20;;
11121;SDS011;5615;49.304;10.576;2023-12-20T04:20:14;3.37;;;3.07;;
11121;SDS011;5615;49.304;10.576;2023-12-20T04:22:42;3.50;;;3.20;;
11121;SDS011;5615;49.304;10.576;2023-12-20T04:25:09;3.83;;;3.30;;
11121;SDS011;5615;49.304;10.576;2023-12-20T04:27:36;4.90;;;2.90;;
11121;SDS011;5615;49.304;10.576;2023-12-20T04:30:02;3.60;;;3.07;;
11121;SDS011;5615;49.304;10.576;2023-12-20T04:32:29;3.17;;;2.87;;
11121;SDS011;5615;49.304;10.576;2023-12-20T04:34:56;3.80;;;3.43;;
11121;SDS011;5615;49.304;10.576;2023-12-20T04:37:23;4.43;;;3.03;;
11121;SDS011;5615;49.304;10.576;2023-12-20T04:39:51;3.03;;;2.80;;
11121;SDS011;5615;49.304;10.576;2023-12-20T04:42:18;3.10;;;2.90;;
11121;SDS011;5615;49.304;10.576;2023-12-20T04:44:44;3.20;;;2.90;;
11121;SDS011;5615;49.304;10.576;2023-12-20T04:47:11;3.13;;;2.73;;
11121;SDS011;5615;49.304;10.576;2023-12-20T04:49:38;3.90;;;3.40;;
11121;SDS011;5615;49.304;10.576;2023-12-20T04:52:04;3.30;;;3.00;;
11121;SDS011;5615;49.304;10.576;2023-12-20T04:54:31;3.73;;;3.33;;
11121;SDS011;5615;49.304;10.576;2023-12-20T04:56:59;4.57;;;3.07;;
11121;SDS011;5615;49.304;10.576;2023-12-20T04:59:26;3.40;;;3.10;;
11121;SDS011;5615;49.304;10.576;2023-12-20T05:01:53;4.50;;;3.33;;
11121;SDS011;5615;49.304;10.576;2023-12-20T05:04:19;2.87;;;2.67;;
11121;SDS011;5615;49.304;10.576;2023-12-20T05:06:46;3.40;;;3.10;;
11121;SDS011;5615;49.304;10.576;2023-12-20T05:09:14;3.43;;;2.93;;
11121;SDS011;5615;49.304;10.576;2023-12-20T05:11:41;3.10;;;2.80;;
11121;SDS011;5615;49.304;10.576;2023-12-20T05:14:09;3.60;;;3.30;;
11121;SDS011;5615;49.304;10.576;2023-12-20T05:16:36;3.80;;;3.50;;
11121;SDS011;5615;49.304;10.576;2023-12-20T05:19:02;4.13;;;3.23;;
11121;SDS011;5615;49.304;10.576;2023-12-20T05:21:31;3.70;;;3.33;;
11121;SDS011;5615;49.304;10.576;2023-12-20T05:23:58;3.60;;;3.30;;
11121;SDS011;5615;49.304;10.576;2023-12-20T05:26:25;4.07;;;3.67;;
11121;SDS011;5615;49.304;10.576;2023-12-20T05:28:51;4.10;;;3.70;;
11121;SDS011;5615;49.304;10.576;2023-12-20T05:31:19;4.57;;;3.73;;
11121;SDS011;5615;49.304;10.576;2023-12-20T05:33:46;3.83;;;3.53;;
11121;SDS011;5615;49.304;10.576;2023-12-20T05:36:13;5.53;;;4.30;;
11121;SDS011;5615;49.304;10.576;2023-12-20T05:38:40;4.67;;;4.10;;
11121;SDS011;5615;49.304;10.576;2023-12-20T05:41:06;5.33;;;4.40;;
11121;SDS011;5615;49.304;10.576;2023-12-20T05:43:33;5.00;;;4.50;;
11121;SDS011;5615;49.304;10.576;2023-12-20T05:46:00;4.67;;;4.20;;
11121;SDS011;5615;49.304;10.576;2023-12-20T05:48:28;5.00;;;4.50;;
11121;SDS011;5615;49.304;10.576;2023-12-20T05:50:54;6.10;;;5.50;;
11121;SDS011;5615;49.304;10.576;2023-12-20T05:53:21;7.93;;;5.87;;
11121;SDS011;5615;49.304;10.576;2023-12-20T05:55:48;11.57;;;8.47;;
11121;SDS011;5615;49.304;10.576;2023-12-20T05:58:15;7.37;;;6.37;;
11121;SDS011;5615;49.304;10.576;2023-12-20T06:00:41;9.73;;;8.00;;
11121;SDS011;5615;49.304;10.576;2023-12-20T06:03:08;7.40;;;6.70;;
11121;SDS011;5615;49.304;10.576;2023-12-20T06:05:36;7.77;;;6.33;;
11121;SDS011;5615;49.304;10.576;2023-12-20T06:08:03;7.80;;;7.00;;
11121;SDS011;5615;49.304;10.576;2023-12-20T06:10:30;10.20;;;7.63;;
11121;SDS011;5615;49.304;10.576;2023-12-20T06:12:56;9.07;;;7.57;;
11121;SDS011;5615;49.304;10.576;2023-12-20T06:15:24;8.57;;;7.60;;
11121;SDS011;5615;49.304;10.576;2023-12-20T06:17:50;9.70;;;8.50;;
11121;SDS011;5615;49.304;10.576;2023-12-20T06:20:17;10.47;;;8.90;;
11121;SDS011;5615;49.304;10.576;2023-12-20T06:22:45;10.20;;;9.00;;
11121;SDS011;5615;49.304;10.576;2023-12-20T06:25:12;11.37;;;8.27;;
11121;SDS011;5615;49.304;10.576;2023-12-20T06:27:38;10.30;;;9.03;;
11121;SDS011;5615;49.304;10.576;2023-12-20T06:30:06;11.80;;;9.83;;
11121;SDS011;5615;49.304;10.576;2023-12-20T06:32:34;11.47;;;9.27;;
11121;SDS011;5615;49.304;10.576;2023-12-20T06:35:03;13.03;;;10.27;;
11121;SDS011;5615;49.304;10.576;2023-12-20T06:37:30;11.63;;;9.23;;
11121;SDS011;5615;49.304;10.576;2023-12-20T06:39:58;9.13;;;8.07;;
11121;SDS011;5615;49.304;10.576;2023-12-20T06:42:24;10.67;;;9.03;;
11121;SDS011;5615;49.304;10.576;2023-12-20T06:44:51;9.93;;;8.43;;
11121;SDS011;5615;49.304;10.576;2023-12-20T06:47:18;12.70;;;8.93;;
11121;SDS011;5615;49.304;10.576;2023-12-20T06:49:45;10.17;;;8.07;;
11121;SDS011;5615;49.304;10.576;2023-12-20T06:52:12;10.10;;;8.20;;
11121;SDS011;5615;49.304;10.576;2023-12-20T06:54:38;10.17;;;7.57;;
11121;SDS011;5615;49.304;10.576;2023-12-20T06:57:06;9.60;;;8.37;;
11121;SDS011;5615;49.304;10.576;2023-12-20T06:59:37;12.27;;;8.53;;
11121;SDS011;5615;49.304;10.576;2023-12-20T07:02:05;8.80;;;7.87;;
11121;SDS011;5615;49.304;10.576;2023-12-20T07:04:31;8.90;;;7.57;;
11121;SDS011;5615;49.304;10.576;2023-12-20T07:06:58;10.47;;;8.70;;
11121;SDS011;5615;49.304;10.576;2023-12-20T07:09:25;8.83;;;7.37;;
11121;SDS011;5615;49.304;10.576;2023-12-20T07:11:52;10.30;;;7.30;;
11121;SDS011;5615;49.304;10.576;2023-12-20T07:14:20;9.33;;;7.77;;
11121;SDS011;5615;49.304;10.576;2023-12-20T07:16:47;10.10;;;8.17;;
11121;SDS011;5615;49.304;10.576;2023-12-20T07:19:13;11.93;;;8.13;;
11121;SDS011;5615;49.304;10.576;2023-12-20T07:21:40;9.93;;;8.47;;
11121;SDS011;5615;49.304;10.576;2023-12-20T07:24:07;10.20;;;8.07;;
11121;SDS011;5615;49.304;10.576;2023-12-20T07:26:34;12.17;;;9.43;;
11121;SDS011;5615;49.304;10.576;2023-12-20T07:29:02;12.20;;;9.40;;
11121;SDS011;5615;49.304;10.576;2023-12-20T07:31:30;11.50;;;9.07;;
11121;SDS011;5615;49.304;10.576;2023-12-20T07:33:57;12.57;;;10.00;;
11121;SDS011;5615;49.304;10.576;2023-12-20T07:36:24;15.20;;;10.43;;
11121;SDS011;5615;49.304;10.576;2023-12-20T07:38:50;13.00;;;10.53;;
11121;SDS011;5615;49.304;10.576;2023-12-20T07:41:17;14.27;;;10.93;;
11121;SDS011;5615;49.304;10.576;2023-12-20T07:43:46;15.20;;;11.20;;
11121;SDS011;5615;49.304;10.576;2023-12-20T07:46:12;13.73;;;11.20;;
11121;SDS011;5615;49.304;10.576;2023-12-20T07:48:40;13.30;;;10.57;;
11121;SDS011;5615;49.304;10.576;2023-12-20T07:51:07;14.77;;;11.70;;
11121;SDS011;5615;49.304;10.576;2023-12-20T07:53:34;14.70;;;11.60;;
11121;SDS011;5615;49.304;10.576;2023-12-20T07:56:02;15.23;;;11.50;;
11121;SDS011;5615;49.304;10.576;2023-12-20T07:58:39;12.67;;;10.40;;
11121;SDS011;5615;49.304;10.576;2023-12-20T08:01:05;13.07;;;10.57;;
11121;SDS011;5615;49.304;10.576;2023-12-20T08:03:32;13.90;;;11.20;;
11121;SDS011;5615;49.304;10.576;2023-12-20T08:06:00;18.80;;;11.10;;
11121;SDS011;5615;49.304;10.576;2023-12-20T08:08:28;14.93;;;10.73;;
11121;SDS011;5615;49.304;10.576;2023-12-20T08:10:54;12.30;;;10.00;;
11121;SDS011;5615;49.304;10.576;2023-12-20T08:13:22;11.60;;;9.50;;
11121;SDS011;5615;49.304;10.576;2023-12-20T08:15:51;11.63;;;9.77;;
11121;SDS011;5615;49.304;10.576;2023-12-20T08:18:17;12.93;;;11.00;;
11121;SDS011;5615;49.304;10.576;2023-12-20T08:20:44;12.33;;;10.40;;
11121;SDS011;5615;49.304;10.576;2023-12-20T08:23:13;10.40;;;9.17;;
11121;SDS011;5615;49.304;10.576;2023-12-20T08:25:41;11.37;;;9.87;;
11121;SDS011;5615;49.304;10.576;2023-12-20T08:28:08;9.00;;;8.10;;
11121;SDS011;5615;49.304;10.576;2023-12-20T08:30:34;8.77;;;7.87;;
11121;SDS011;5615;49.304;10.576;2023-12-20T08:33:01;8.83;;;7.80;;
11121;SDS011;5615;49.304;10.576;2023-12-20T08:35:28;8.47;;;7.60;;
11121;SDS011;5615;49.304;10.576;2023-12-20T08:37:56;7.70;;;6.90;;
11121;SDS011;5615;49.304;10.576;2023-12-20T08:40:24;8.17;;;6.57;;
11121;SDS011;5615;49.304;10.576;2023-12-20T08:42:50;8.40;;;7.43;;
11121;SDS011;5615;49.304;10.576;2023-12-20T08:45:17;8.47;;;6.93;;
11121;SDS011;5615;49.304;10.576;2023-12-20T08:47:44;7.60;;;6.47;;
11121;SDS011;5615;49.304;10.576;2023-12-20T08:50:10;7.03;;;5.93;;
11121;SDS011;5615;49.304;10.576;2023-12-20T08:52:37;5.23;;;4.73;;
11121;SDS011;5615;49.304;10.576;2023-12-20T08:55:04;7.27;;;5.60;;
11121;SDS011;5615;49.304;10.576;2023-12-20T08:57:33;6.30;;;4.40;;
11121;SDS011;5615;49.304;10.576;2023-12-20T08:59:59;4.77;;;4.27;;
11121;SDS011;5615;49.304;10.576;2023-12-20T09:02:26;5.40;;;4.23;;
11121;SDS011;5615;49.304;10.576;2023-12-20T09:04:53;4.40;;;3.63;;
11121;SDS011;5615;49.304;10.576;2023-12-20T09:07:21;3.57;;;3.00;;
11121;SDS011;5615;49.304;10.576;2023-12-20T09:09:48;3.37;;;2.77;;
11121;SDS011;5615;49.304;10.576;2023-12-20T09:12:15;3.17;;;2.80;;
11121;SDS011;5615;49.304;10.576;2023-12-20T09:14:44;3.70;;;3.00;;
11121;SDS011;5615;49.304;10.576;2023-12-20T09:17:11;4.07;;;2.90;;
11121;SDS011;5615;49.304;10.576;2023-12-20T09:19:38;3.93;;;2.50;;
11121;SDS011;5615;49.304;10.576;2023-12-20T09:22:04;3.20;;;2.30;;
11121;SDS011;5615;49.304;10.576;2023-12-20T09:24:32;3.77;;;2.50;;
11121;SDS011;5615;49.304;10.576;2023-12-20T09:26:59;5.20;;;2.60;;
11121;SDS011;5615;49.304;10.576;2023-12-20T09:29:25;3.77;;;2.13;;
11121;SDS011;5615;49.304;10.576;2023-12-20T09:31:53;6.00;;;2.50;;
11121;SDS011;5615;49.304;10.576;2023-12-20T09:34:20;6.27;;;2.37;;
11121;SDS011;5615;49.304;10.576;2023-12-20T09:36:47;3.00;;;2.10;;
11121;SDS011;5615;49.304;10.576;2023-12-20T09:39:13;3.63;;;2.20;;
11121;SDS011;5615;49.304;10.576;2023-12-20T09:41:42;6.83;;;2.37;;
11121;SDS011;5615;49.304;10.576;2023-12-20T09:44:12;5.20;;;2.30;;
11121;SDS011;5615;49.304;10.576;2023-12-20T09:46:42;3.87;;;2.57;;
11121;SDS011;5615;49.304;10.576;2023-12-20T09:49:12;4.57;;;2.63;;
11121;SDS011;5615;49.304;10.576;2023-12-20T09:51:39;5.57;;;2.73;;
11121;SDS011;5615;49.304;10.576;2023-12-20T09:54:06;7.83;;;2.40;;
11121;SDS011;5615;49.304;10.576;2023-12-20T09:56:33;7.33;;;2.57;;
11121;SDS011;5615;49.304;10.576;2023-12-20T09:59:00;4.13;;;2.27;;
11121;SDS011;5615;49.304;10.576;2023-12-20T10:01:26;4.53;;;2.30;;
11121;SDS011;5615;49.304;10.576;2023-12-20T10:03:54;3.23;;;2.33;;
11121;SDS011;5615;49.304;10.576;2023-12-20T10:06:23;6.10;;;2.40;;
11121;SDS011;5615;49.304;10.576;2023-12-20T10:08:49;4.63;;;2.40;;
11121;SDS011;5615;49.304;10.576;2023-12-20T10:11:16;3.93;;;2.33;;
11121;SDS011;5615;49.304;10.576;2023-12-20T10:13:43;5.93;;;2.50;;
11121;SDS011;5615;49.304;10.576;2023-12-20T10:16:09;5.83;;;2.33;;
11121;SDS011;5615;49.304;10.576;2023-12-20T10:18:36;4.27;;;2.40;;
11121;SDS011;5615;49.304;10.576;2023-12-20T10:21:03;6.90;;;3.10;;
11121;SDS011;5615;49.304;10.576;2023-12-20T10:23:31;5.33;;;3.23;;
11121;SDS011;5615;49.304;10.576;2023-12-20T10:25:58;4.17;;;2.80;;
11121;SDS011;5615;49.304;10.576;2023-12-20T10:28:25;6.40;;;2.30;;
11121;SDS011;5615;49.304;10.576;2023-12-20T10:30:53;5.07;;;3.40;;
11121;SDS011;5615;49.304;10.576;2023-12-20T10:33:23;8.33;;;4.63;;
11121;SDS011;5615;49.304;10.576;2023-12-20T10:35:51;9.63;;;4.57;;
11121;SDS011;5615;49.304;10.576;2023-12-20T10:38:18;7.13;;;4.47;;
11121;SDS011;5615;49.304;10.576;2023-12-20T10:40:46;5.37;;;4.00;;
11121;SDS011;5615;49.304;10.576;2023-12-20T10:43:13;8.93;;;6.20;;
11121;SDS011;5615;49.304;10.576;2023-12-20T10:45:41;6.43;;;3.93;;
11121;SDS011;5615;49.304;10.576;2023-12-20T10:48:09;7.70;;;4.20;;
11121;SDS011;5615;49.304;10.576;2023-12-20T10:50:36;5.63;;;3.90;;
11121;SDS011;5615;49.304;10.576;2023-12-20T10:53:05;6.30;;;4.00;;
11121;SDS011;5615;49.304;10.576;2023-12-20T10:55:33;6.60;;;4.13;;
11121;SDS011;5615;49.304;10.576;2023-12-20T10:58:02;6.77;;;3.70;;
11121;SDS011;5615;49.304;10.576;2023-12-20T11:00:33;5.90;;;3.60;;
11121;SDS011;5615;49.304;10.576;2023-12-20T11:03:05;5.10;;;3.57;;
11121;SDS011;5615;49.304;10.576;2023-12-20T11:05:36;4.47;;;3.43;;
11121;SDS011;5615;49.304;10.576;2023-12-20T11:08:20;8.37;;;5.20;;
11121;SDS011;5615;49.304;10.576;2023-12-20T11:10:55;7.17;;;3.83;;
11121;SDS011;5615;49.304;10.576;2023-12-20T11:13:28;6.63;;;5.23;;
11121;SDS011;5615;49.304;10.576;2023-12-20T11:15:58;8.63;;;4.57;;
11121;SDS011;5615;49.304;10.576;2023-12-20T11:18:28;5.40;;;3.50;;
11121;SDS011;5615;49.304;10.576;2023-12-20T11:20:55;9.77;;;5.17;;
11121;SDS011;5615;49.304;10.576;2023-12-20T11:23:26;6.63;;;4.77;;
11121;SDS011;5615;49.304;10.576;2023-12-20T11:25:54;9.73;;;3.70;;
11121;SDS011;5615;49.304;10.576;2023-12-20T11:28:24;7.33;;;4.80;;
11121;SDS011;5615;49.304;10.576;2023-12-20T11:30:53;7.27;;;4.93;;
11121;SDS011;5615;49.304;10.576;2023-12-20T11:33:21;9.87;;;4.80;;
11121;SDS011;5615;49.304;10.576;2023-12-20T11:35:49;7.63;;;3.60;;
11121;SDS011;5615;49.304;10.576;2023-12-20T11:38:15;7.83;;;4.37;;
11121;SDS011;5615;49.304;10.576;2023-12-20T11:40:43;7.43;;;3.77;;
11121;SDS011;5615;49.304;10.576;2023-12-20T11:43:10;4.90;;;4.03;;
11121;SDS011;5615;49.304;10.576;2023-12-20T11:45:36;6.53;;;3.67;;
11121;SDS011;5615;49.304;10.576;2023-12-20T11:48:05;5.37;;;3.50;;
11121;SDS011;5615;49.304;10.576;2023-12-20T11:50:33;9.83;;;3.93;;
11121;SDS011;5615;49.304;10.576;2023-12-20T11:53:00;6.47;;;4.53;;
11121;SDS011;5615;49.304;10.576;2023-12-20T11:55:26;6.17;;;4.07;;
11121;SDS011;5615;49.304;10.576;2023-12-20T11:57:53;10.53;;;3.73;;
11121;SDS011;5615;49.304;10.576;2023-12-20T12:00:20;4.83;;;3.53;;
11121;SDS011;5615;49.304;10.576;2023-12-20T12:02:56;8.83;;;3.70;;
11121;SDS011;5615;49.304;10.576;2023-12-20T12:05:25;8.10;;;3.80;;
11121;SDS011;5615;49.304;10.576;2023-12-20T12:07:52;6.07;;;3.60;;
11121;SDS011;5615;49.304;10.576;2023-12-20T12:10:19;6.87;;;3.97;;
11121;SDS011;5615;49.304;10.576;2023-12-20T12:12:46;4.53;;;3.17;;
11121;SDS011;5615;49.304;10.576;2023-12-20T12:15:12;4.63;;;3.50;;
11121;SDS011;5615;49.304;10.576;2023-12-20T12:17:40;6.73;;;3.23;;
11121;SDS011;5615;49.304;10.576;2023-12-20T12:20:07;8.57;;;4.20;;
11121;SDS011;5615;49.304;10.576;2023-12-20T12:22:36;7.17;;;3.93;;
11121;SDS011;5615;49.304;10.576;2023-12-20T12:25:09;6.73;;;3.87;;
11121;SDS011;5615;49.304;10.576;2023-12-20T12:27:37;6.73;;;3.53;;
11121;SDS011;5615;49.304;10.576;2023-12-20T12:30:05;6.07;;;2.93;;
11121;SDS011;5615;49.304;10.576;2023-12-20T12:32:33;5.13;;;3.00;;
11121;SDS011;5615;49.304;10.576;2023-12-20T12:34:59;7.33;;;4.40;;
11121;SDS011;5615;49.304;10.576;2023-12-20T12:37:28;17.73;;;7.00;;
11121;SDS011;5615;49.304;10.576;2023-12-20T12:39:56;6.57;;;3.87;;
11121;SDS011;5615;49.304;10.576;2023-12-20T12:42:23;3.20;;;2.90;;
11121;SDS011;5615;49.304;10.576;2023-12-20T12:44:53;5.27;;;2.87;;
11121;SDS011;5615;49.304;10.576;2023-12-20T12:47:20;6.23;;;3.33;;
11121;SDS011;5615;49.304;10.576;2023-12-20T12:49:47;4.60;;;3.10;;
11121;SDS011;5615;49.304;10.576;2023-12-20T12:52:14;7.63;;;3.53;;
11121;SDS011;5615;49.304;10.576;2023-12-20T12:54:40;8.50;;;3.27;;
11121;SDS011;5615;49.304;10.576;2023-12-20T12:57:08;6.57;;;3.20;;
11121;SDS011;5615;49.304;10.576;2023-12-20T12:59:35;5.57;;;3.10;;
11121;SDS011;5615;49.304;10.576;2023-12-20T13:02:02;6.40;;;3.27;;
11121;SDS011;5615;49.304;10.576;2023-12-20T13:04:29;5.93;;;2.63;;
11121;SDS011;5615;49.304;10.576;2023-12-20T13:06:56;6.67;;;2.97;;
11121;SDS011;5615;49.304;10.576;2023-12-20T13:09:23;6.13;;;3.47;;
11121;SDS011;5615;49.304;10.576;2023-12-20T13:11:49;9.17;;;3.17;;
11121;SDS011;5615;49.304;10.576;2023-12-20T13:14:17;4.43;;;3.00;;
11121;SDS011;5615;49.304;10.576;2023-12-20T13:16:44;5.10;;;2.80;;
11121;SDS011;5615;49.304;10.576;2023-12-20T13:19:11;5.97;;;2.83;;
11121;SDS011;5615;49.304;10.576;2023-12-20T13:21:37;7.90;;;3.30;;
11121;SDS011;5615;49.304;10.576;2023-12-20T13:24:05;6.10;;;3.03;;
11121;SDS011;5615;49.304;10.576;2023-12-20T13:26:32;8.43;;;3.33;;
11121;SDS011;5615;49.304;10.576;2023-12-20T13:28:58;7.20;;;2.90;;
11121;SDS011;5615;49.304;10.576;2023-12-20T13:31:26;5.53;;;2.90;;
11121;SDS011;5615;49.304;10.576;2023-12-20T13:33:53;5.63;;;3.00;;
11121;SDS011;5615;49.304;10.576;2023-12-20T13:36:20;9.03;;;3.70;;
11121;SDS011;5615;49.304;10.576;2023-12-20T13:38:46;8.07;;;4.20;;
11121;SDS011;5615;49.304;10.576;2023-12-20T13:41:13;8.47;;;4.00;;
11121;SDS011;5615;49.304;10.576;2023-12-20T13:43:40;26.20;;;12.40;;
11121;SDS011;5615;49.304;10.576;2023-12-20T13:46:07;7.27;;;4.10;;
11121;SDS011;5615;49.304;10.576;2023-12-20T13:48:35;6.03;;;3.90;;
11121;SDS011;5615;49.304;10.576;2023-12-20T13:51:03;6.60;;;3.50;;
11121;SDS011;5615;49.304;10.576;2023-12-20T13:53:30;10.97;;;3.90;;
11121;SDS011;5615;49.304;10.576;2023-12-20T13:55:57;11.70;;;3.87;;
11121;SDS011;5615;49.304;10.576;2023-12-20T13:58:25;11.10;;;3.67;;
11121;SDS011;5615;49.304;10.576;2023-12-20T14:00:54;11.47;;;3.70;;
11121;SDS011;5615;49.304;10.576;2023-12-20T14:03:20;9.57;;;3.60;;
11121;SDS011;5615;49.304;10.576;2023-12-20T14:05:48;7.20;;;3.93;;
11121;SDS011;5615;49.304;10.576;2023-12-20T14:08:15;6.37;;;3.33;;
11121;SDS011;5615;49.304;10.576;2023-12-20T14:10:41;4.87;;;3.00;;
11121;SDS011;5615;49.304;10.576;2023-12-20T14:13:08;6.10;;;2.83;;
11121;SDS011;5615;49.304;10.576;2023-12-20T14:15:35;6.77;;;3.70;;
11121;SDS011;5615;49.304;10.576;2023-12-20T14:18:02;10.93;;;3.67;;
11121;SDS011;5615;49.304;10.576;2023-12-20T14:20:31;4.67;;;2.87;;
11121;SDS011;5615;49.304;10.576;2023-12-20T14:23:00;7.33;;;3.27;;
11121;SDS011;5615;49.304;10.576;2023-12-20T14:25:27;8.20;;;3.90;;
11121;SDS011;5615;49.304;10.576;2023-12-20T14:27:54;7.13;;;3.90;;
11121;SDS011;5615;49.304;10.576;2023-12-20T14:30:20;12.60;;;4.07;;
11121;SDS011;5615;49.304;10.576;2023-12-20T14:32:47;9.53;;;4.23;;
11121;SDS011;5615;49.304;10.576;2023-12-20T14:35:14;8.33;;;4.77;;
11121;SDS011;5615;49.304;10.576;2023-12-20T14:37:41;10.23;;;4.30;;
11121;SDS011;5615;49.304;10.576;2023-12-20T14:40:09;9.00;;;4.27;;
11121;SDS011;5615;49.304;10.576;2023-12-20T14:42:40;7.90;;;4.10;;